Bda San Isidro, Puerto Rico
Current Conditions -  °F | °C
As of 4:50 PM on Monday 26 Jan 2015 (Local Time) from TJPS Reporting Station
Few Clouds Few Clouds  
Wind Chill: 84°   Ceiling: Unl
Heat Index: 88°   Visibility: 10mi
Dew Point: 70°   Wind: 12mph
Humidity: 62%   Direction: 140°SE
Pressure: 29.93"   Gusts: NA
Location:  18.0664°N, 66.9568°W
Report Text: TJPS 262050Z 14010KT 10SM FEW030 29/21 A2993
Loading
Personal Weather Stations






























Interactive Weather Map New forecast layout! Learn more

10-Day Weather Forecast

Advertisements
Track Severe Weather on mobile